Time;durP1;ratioP1;P1;durP2;ratioP2;P2;SDS_P1;SDS_P2;PMS_P1;PMS_P2;Temp;Humidity;BMP_temperature;BMP_pressure;BME280_temperature;BME280_humidity;BME280_pressure;Samples;Min_cycle;Max_cycle;Signal;HPM_P1;HPM_P2
2022/09/06 00:00:38;;;;;;;;;;;;;;;17.99;66.60;98226.41;5022577;28;19935;-86
2022/09/06 00:03:08;;;;;;;;;;;;;;;18.00;66.40;98225.25;4993509;28;19930;-82
2022/09/06 00:05:37;;;;;;;;;;;;;;;17.98;66.39;98227.56;5006058;28;19992;-84
2022/09/06 00:08:09;;;;;;;;;;;;;;;17.95;66.58;98223.59;5009261;28;20018;-85
2022/09/06 00:10:37;;;;;;;;;;;;;;;17.96;66.75;98218.88;5002117;28;20004;-85
2022/09/06 00:13:06;;;;;;;;;;;;;;;17.95;66.71;98218.09;5002224;28;19961;-84
2022/09/06 00:15:34;;;;;;;;;;;;;;;17.91;66.75;98216.41;5010275;28;19930;-86
2022/09/06 00:18:03;;;;;;;;;;;;;;;17.91;66.70;98219.94;5012545;28;19992;-84
2022/09/06 00:20:32;;;;;;;;;;;;;;;17.92;66.70;98223.50;5012645;28;20392;-85
2022/09/06 00:23:02;;;;;;;;;;;;;;;17.89;67.15;98222.22;4993003;28;20000;-85
2022/09/06 00:25:30;;;;;;;;;;;;;;;17.91;66.75;98219.94;5007643;28;20468;-84
2022/09/06 00:27:59;;;;;;;;;;;;;;;17.90;66.65;98223.06;5009074;28;19971;-86
2022/09/06 00:30:28;;;;;;;;;;;;;;;17.90;66.58;98221.09;5000384;28;19926;-85
2022/09/06 00:32:58;;;;;;;;;;;;;;;17.89;66.60;98224.19;5003309;28;19964;-84
2022/09/06 00:35:26;;;;;;;;;;;;;;;17.88;66.63;98219.84;5000599;28;19929;-85
2022/09/06 00:37:57;;;;;;;;;;;;;;;17.87;66.85;98221.00;4991664;28;20462;-85
2022/09/06 00:40:28;;;;;;;;;;;;;;;17.85;66.87;98226.06;5009401;28;19983;-85
2022/09/06 00:42:56;;;;;;;;;;;;;;;17.86;67.04;98231.19;5003520;28;19929;-84
2022/09/06 00:45:25;;;;;;;;;;;;;;;17.86;66.91;98231.19;5000389;28;19941;-84
2022/09/06 00:47:55;;;;;;;;;;;;;;;17.86;66.56;98230.41;5002444;28;19989;-84
2022/09/06 00:50:26;;;;;;;;;;;;;;;17.87;66.68;98232.00;5009300;28;19976;-85
2022/09/06 00:52:54;;;;;;;;;;;;;;;17.80;66.72;98232.59;5009462;28;19953;-84
2022/09/06 00:55:25;;;;;;;;;;;;;;;17.81;66.59;98223.19;4993083;28;19926;-84
2022/09/06 00:57:55;;;;;;;;;;;;;;;17.80;66.59;98224.34;5002074;28;19948;-84
2022/09/06 01:00:23;;;;;;;;;;;;;;;17.78;66.73;98230.19;4990214;28;19937;-85
2022/09/06 01:02:52;;;;;;;;;;;;;;;17.77;66.96;98231.34;5009853;28;19957;-84
2022/09/06 01:05:20;;;;;;;;;;;;;;;17.77;66.81;98234.09;5007497;28;19925;-85
2022/09/06 01:07:52;;;;;;;;;;;;;;;17.78;66.81;98243.91;4991315;28;20368;-84
2022/09/06 01:10:24;;;;;;;;;;;;;;;17.78;66.84;98240.38;5004127;28;19940;-84
2022/09/06 01:12:57;;;;;;;;;;;;;;;17.75;66.91;98239.16;5008649;28;19925;-85
2022/09/06 01:15:35;;;;;;;;;;;;;;;17.71;66.96;98229.97;4997834;28;20269;-82
2022/09/06 01:18:06;;;;;;;;;;;;;;;17.71;67.27;98235.47;5007398;28;19934;-84
2022/09/06 01:20:40;;;;;;;;;;;;;;;17.68;67.54;98233.41;4989555;28;19948;-85
2022/09/06 01:23:27;;;;;;;;;;;;;;;17.67;67.57;98229.06;5022127;28;20022;-85
2022/09/06 01:25:59;;;;;;;;;;;;;;;17.64;67.81;98231.72;5007698;28;19937;-85
2022/09/06 01:28:30;;;;;;;;;;;;;;;17.64;67.48;98235.28;4995049;28;19926;-83
2022/09/06 01:31:00;;;;;;;;;;;;;;;17.64;67.37;98235.28;4991814;28;20025;-83
2022/09/06 01:33:34;;;;;;;;;;;;;;;17.65;67.46;98239.63;5005204;28;20303;-84
2022/09/06 01:36:04;;;;;;;;;;;;;;;17.63;67.67;98238.34;5000673;28;19952;-84
2022/09/06 01:38:32;;;;;;;;;;;;;;;17.59;67.85;98232.78;5001538;28;19932;-84
2022/09/06 01:41:00;;;;;;;;;;;;;;;17.59;67.84;98238.25;5003610;28;19926;-85
2022/09/06 01:43:30;;;;;;;;;;;;;;;17.57;68.02;98240.53;5001134;28;19926;-84
2022/09/06 01:46:01;;;;;;;;;;;;;;;17.57;68.05;98237.81;5010444;28;19941;-84
2022/09/06 01:48:33;;;;;;;;;;;;;;;17.57;67.94;98240.53;4990689;28;20389;-83
2022/09/06 01:51:06;;;;;;;;;;;;;;;17.53;67.91;98239.66;4999545;28;19933;-83
2022/09/06 01:53:44;;;;;;;;;;;;;;;17.50;68.32;98238.41;5006058;28;19944;-84
2022/09/06 01:56:14;;;;;;;;;;;;;;;17.49;68.37;98241.50;5003816;28;19929;-82
2022/09/06 01:58:52;;;;;;;;;;;;;;;17.48;68.19;98245.41;4992574;28;19932;-83
2022/09/06 02:01:22;;;;;;;;;;;;;;;17.50;68.50;98240.34;4990259;28;19925;-85
2022/09/06 02:04:15;;;;;;;;;;;;;;;17.46;68.29;98245.72;5021100;28;20423;-86
2022/09/06 02:06:46;;;;;;;;;;;;;;;17.46;68.31;98239.44;4986917;28;19926;-84
2022/09/06 02:09:18;;;;;;;;;;;;;;;17.45;68.24;98232.34;4989116;28;20291;-84
2022/09/06 02:12:08;;;;;;;;;;;;;;;17.42;68.58;98235.81;5006344;28;19945;-84
2022/09/06 02:15:00;;;;;;;;;;;;;;;17.40;68.79;98232.59;4996086;28;20021;-86
2022/09/06 02:18:12;;;;;;;;;;;;;;;17.41;68.51;98225.94;5006374;28;19929;-83
2022/09/06 02:21:25;;;;;;;;;;;;;;;17.39;68.60;98223.56;5010285;28;20293;-83
2022/09/06 02:24:14;;;;;;;;;;;;;;;17.37;68.70;98225.06;5009364;28;19929;-84
2022/09/06 02:27:03;;;;;;;;;;;;;;;17.30;69.08;98220.16;5013155;28;19926;-86
2022/09/06 02:30:15;;;;;;;;;;;;;;;17.27;69.30;98221.66;5006724;28;19929;-86
2022/09/06 02:33:07;;;;;;;;;;;;;;;17.25;69.01;98218.44;5008786;28;19929;-86
2022/09/06 02:35:55;;;;;;;;;;;;;;;17.25;69.18;98207.47;5011911;28;19925;-85
2022/09/06 02:38:44;;;;;;;;;;;;;;;17.20;69.47;98220.63;5013653;28;20007;-84
2022/09/06 02:41:32;;;;;;;;;;;;;;;17.19;69.47;98219.84;5008632;28;19926;-85
2022/09/06 02:44:25;;;;;;;;;;;;;;;17.20;69.38;98210.44;5013296;28;20437;-85
2022/09/06 02:47:14;;;;;;;;;;;;;;;17.19;69.47;98213.56;5007515;28;20329;-86
2022/09/06 02:50:08;;;;;;;;;;;;;;;17.19;69.47;98208.06;5006404;28;20316;-85
2022/09/06 02:52:37;;;;;;;;;;;;;;;17.14;69.81;98214.59;5004565;28;20376;-85
2022/09/06 02:55:06;;;;;;;;;;;;;;;17.12;69.99;98216.09;5013215;28;19932;-85
2022/09/06 02:57:34;;;;;;;;;;;;;;;17.11;69.99;98211.75;5018098;28;19973;-87
2022/09/06 03:00:02;;;;;;;;;;;;;;;17.09;69.97;98217.56;5005362;28;19957;-88
2022/09/06 03:02:30;;;;;;;;;;;;;;;17.07;69.98;98217.13;4999363;28;19995;-87
2022/09/06 03:04:59;;;;;;;;;;;;;;;17.08;70.09;98221.47;5010116;28;20345;-86
2022/09/06 03:07:28;;;;;;;;;;;;;;;17.06;70.31;98214.75;4997346;28;19926;-87
2022/09/06 03:09:57;;;;;;;;;;;;;;;17.07;70.18;98214.38;5008206;28;19976;-87
2022/09/06 03:12:25;;;;;;;;;;;;;;;17.05;70.02;98208.44;4999924;28;19948;-86
2022/09/06 03:14:53;;;;;;;;;;;;;;;17.04;70.17;98206.84;5007578;28;20364;-86
2022/09/06 03:17:26;;;;;;;;;;;;;;;17.02;70.03;98212.69;5003748;28;19926;-85
2022/09/06 03:19:57;;;;;;;;;;;;;;;16.97;70.16;98214.84;5007665;28;19934;-85
2022/09/06 03:22:25;;;;;;;;;;;;;;;16.96;70.46;98216.00;5025060;28;20388;-85
2022/09/06 03:24:55;;;;;;;;;;;;;;;16.97;70.52;98217.59;5007094;28;20296;-85
2022/09/06 03:27:23;;;;;;;;;;;;;;;16.96;70.58;98210.53;5005562;28;20020;-86
2022/09/06 03:29:51;;;;;;;;;;;;;;;16.93;70.68;98216.69;5004593;28;19930;-84
2022/09/06 03:32:19;;;;;;;;;;;;;;;16.93;70.74;98219.44;5011495;28;20020;-85
2022/09/06 03:34:47;;;;;;;;;;;;;;;16.89;71.03;98215.81;5009041;28;19926;-86
2022/09/06 03:37:18;;;;;;;;;;;;;;;16.86;70.87;98213.75;4995205;28;20012;-86
2022/09/06 03:39:46;;;;;;;;;;;;;;;16.86;71.24;98211.78;5002013;28;19925;-85
2022/09/06 03:42:18;;;;;;;;;;;;;;;16.91;70.89;98210.75;5007834;28;19926;-85
2022/09/06 03:44:46;;;;;;;;;;;;;;;16.93;70.88;98209.25;5000540;28;19925;-86
2022/09/06 03:47:15;;;;;;;;;;;;;;;16.92;70.88;98204.13;5001690;28;19926;-86
2022/09/06 03:49:46;;;;;;;;;;;;;;;16.91;70.75;98200.56;5004626;28;19932;-87
2022/09/06 03:52:16;;;;;;;;;;;;;;;16.89;70.93;98193.84;5004252;28;19929;-86
2022/09/06 03:54:44;;;;;;;;;;;;;;;16.89;70.84;98193.84;5004011;28;19965;-86
2022/09/06 03:57:13;;;;;;;;;;;;;;;16.82;71.23;98193.63;5005932;28;20419;-87
2022/09/06 04:05:33;;;;;;;;;;;;;;;16.81;71.34;98192.81;5016577;28;19976;-85
2022/09/06 04:08:04;;;;;;;;;;;;;;;16.80;71.48;98188.47;5001853;28;19926;-83
2022/09/06 04:10:33;;;;;;;;;;;;;;;16.70;72.19;98192.47;5004787;28;20379;-84
2022/09/06 04:13:03;;;;;;;;;;;;;;;16.79;71.86;98194.31;5012342;28;20424;-85
2022/09/06 04:15:33;;;;;;;;;;;;;;;16.80;71.68;98195.91;5000493;28;20028;-84
2022/09/06 04:18:04;;;;;;;;;;;;;;;16.79;71.83;98199.81;5003100;28;19929;-83
2022/09/06 04:20:36;;;;;;;;;;;;;;;16.81;71.75;98197.50;5021856;28;20419;-82
2022/09/06 04:23:04;;;;;;;;;;;;;;;16.82;71.75;98201.84;5008499;28;20360;-84
2022/09/06 04:25:33;;;;;;;;;;;;;;;16.82;71.50;98188.13;4998944;28;19977;-83
2022/09/06 04:28:01;;;;;;;;;;;;;;;16.80;71.53;98191.22;5010316;28;19936;-83
2022/09/06 04:30:35;;;;;;;;;;;;;;;16.77;71.61;98191.91;5006778;28;19922;-85
2022/09/06 04:33:08;;;;;;;;;;;;;;;16.75;71.71;98189.50;5004450;28;20756;-85
2022/09/06 04:35:39;;;;;;;;;;;;;;;16.76;71.64;98196.59;5011486;28;20368;-83
2022/09/06 04:38:07;;;;;;;;;;;;;;;16.73;71.69;98183.56;5010779;28;19925;-82
2022/09/06 04:40:38;;;;;;;;;;;;;;;16.70;71.99;98186.97;5002035;28;19922;-83
2022/09/06 04:43:06;;;;;;;;;;;;;;;16.72;72.00;98186.66;5012000;28;20020;-82
2022/09/06 04:45:35;;;;;;;;;;;;;;;16.69;72.15;98192.81;4990820;28;19933;-82
2022/09/06 04:48:29;;;;;;;;;;;;;;;16.72;72.02;98192.13;5005982;28;19925;-83
2022/09/06 04:50:57;;;;;;;;;;;;;;;16.72;72.21;98206.69;5007798;28;19960;-81
2022/09/06 04:53:25;;;;;;;;;;;;;;;16.77;72.27;98205.63;5006744;28;20402;-83
2022/09/06 04:55:53;;;;;;;;;;;;;;;16.80;72.16;98196.72;5005602;28;19944;-83
2022/09/06 04:58:47;;;;;;;;;;;;;;;16.87;72.04;98202.41;5000902;28;20305;-83
2022/09/06 05:01:16;;;;;;;;;;;;;;;16.87;72.01;98185.16;5006781;28;19987;-84
2022/09/06 05:03:45;;;;;;;;;;;;;;;16.86;71.97;98192.59;5006539;28;19925;-83
2022/09/06 05:06:19;;;;;;;;;;;;;;;16.89;71.82;98191.09;5005221;28;20019;-83
2022/09/06 05:08:47;;;;;;;;;;;;;;;16.92;71.97;98193.13;5007657;28;19997;-82
2022/09/06 05:11:15;;;;;;;;;;;;;;;16.93;71.78;98195.53;5027477;28;19975;-82
2022/09/06 05:13:43;;;;;;;;;;;;;;;16.94;71.82;98197.16;5012889;28;20012;-82
2022/09/06 05:16:11;;;;;;;;;;;;;;;16.97;71.75;98198.41;5016472;28;19928;-82
2022/09/06 05:18:40;;;;;;;;;;;;;;;16.98;71.78;98197.25;5003086;28;20016;-82
2022/09/06 05:21:11;;;;;;;;;;;;;;;17.01;71.79;98197.34;5007960;28;19929;-82
2022/09/06 05:23:38;;;;;;;;;;;;;;;17.05;71.97;98194.72;5006250;28;20028;-85
2022/09/06 05:26:07;;;;;;;;;;;;;;;17.07;71.97;98199.88;5009298;28;19921;-84
2022/09/06 05:28:35;;;;;;;;;;;;;;;17.10;71.94;98196.41;5007590;28;19980;-84
2022/09/06 05:31:07;;;;;;;;;;;;;;;17.14;71.87;98198.13;5005286;28;19925;-84
2022/09/06 05:33:35;;;;;;;;;;;;;;;17.15;71.73;98207.97;5007445;28;19957;-88
2022/09/06 05:36:04;;;;;;;;;;;;;;;17.17;71.87;98216.66;5003947;28;20024;-86
2022/09/06 05:38:32;;;;;;;;;;;;;;;17.19;72.16;98224.53;5009599;28;19929;-83
2022/09/06 05:41:00;;;;;;;;;;;;;;;17.22;72.03;98227.41;4999759;28;19922;-85
2022/09/06 05:43:28;;;;;;;;;;;;;;;17.29;71.83;98232.28;5005436;28;20016;-82
2022/09/06 05:45:56;;;;;;;;;;;;;;;17.35;71.82;98238.34;5006818;28;19980;-88
2022/09/06 05:48:25;;;;;;;;;;;;;;;17.37;71.67;98236.84;4997462;28;19933;-88
2022/09/06 05:50:59;;;;;;;;;;;;;;;17.41;72.08;98225.94;5009442;28;19948;-85
2022/09/06 05:53:32;;;;;;;;;;;;;;;17.44;71.95;98225.28;5011260;28;19921;-90
2022/09/06 05:56:03;;;;;;;;;;;;;;;17.46;71.79;98234.75;5004581;28;19925;-81
2022/09/06 05:58:31;;;;;;;;;;;;;;;17.50;71.64;98235.66;5010953;28;20020;-85
2022/09/06 06:01:14;;;;;;;;;;;;;;;17.53;71.62;98223.19;5003109;28;20091;-85
2022/09/06 06:04:07;;;;;;;;;;;;;;;17.54;71.59;98219.28;5010459;28;19937;-84
2022/09/06 06:06:35;;;;;;;;;;;;;;;17.55;71.83;98223.63;5011989;28;19937;-89
2022/09/06 06:09:05;;;;;;;;;;;;;;;17.60;71.97;98215.13;5004468;28;20329;-84
2022/09/06 06:11:33;;;;;;;;;;;;;;;17.66;71.81;98216.47;5002931;28;19933;-89
2022/09/06 06:14:02;;;;;;;;;;;;;;;17.73;71.67;98221.41;5007177;28;20692;-92
2022/09/06 06:16:30;;;;;;;;;;;;;;;17.79;71.58;98220.00;5006884;28;19925;-89
2022/09/06 06:18:58;;;;;;;;;;;;;;;17.89;71.50;98224.19;5007732;28;20463;-86
2022/09/06 06:21:27;;;;;;;;;;;;;;;17.99;71.15;98223.66;5012374;28;19961;-81
2022/09/06 06:23:56;;;;;;;;;;;;;;;18.12;70.78;98227.97;5013767;28;20379;-86
2022/09/06 06:26:26;;;;;;;;;;;;;;;18.27;70.77;98218.13;5011578;28;19925;-89
2022/09/06 06:28:56;;;;;;;;;;;;;;;18.36;70.53;98221.47;5026273;28;19931;-90
2022/09/06 06:31:27;;;;;;;;;;;;;;;18.46;70.28;98225.66;5013087;28;20245;-89
2022/09/06 06:33:55;;;;;;;;;;;;;;;18.61;69.67;98210.31;5008828;28;19921;-90
2022/09/06 06:39:18;;;;;;;;;;;;;;;18.70;69.34;98219.22;4997529;28;19925;-89
2022/09/06 06:41:49;;;;;;;;;;;;;;;18.66;69.55;98218.28;5007691;28;19929;-90
2022/09/06 06:44:30;;;;;;;;;;;;;;;18.70;69.28;98219.22;5025934;28;20356;-89
2022/09/06 06:47:01;;;;;;;;;;;;;;;18.71;69.17;98221.59;5010599;28;20650;-86
2022/09/06 06:49:29;;;;;;;;;;;;;;;18.79;69.05;98215.09;5014761;28;19925;-87
2022/09/06 06:51:58;;;;;;;;;;;;;;;18.84;69.15;98212.06;5011126;28;19925;-88
2022/09/06 06:54:26;;;;;;;;;;;;;;;18.89;69.25;98210.97;5008036;28;19929;-91
2022/09/06 06:56:56;;;;;;;;;;;;;;;18.97;68.69;98211.97;5011794;28;20368;-88
2022/09/06 06:59:24;;;;;;;;;;;;;;;18.96;68.98;98202.91;5012021;28;19921;-91
2022/09/06 07:01:54;;;;;;;;;;;;;;;18.95;69.45;98200.50;5002905;28;20292;-89
2022/09/06 07:04:22;;;;;;;;;;;;;;;19.07;68.70;98192.91;5010050;28;19965;-89
2022/09/06 07:06:52;;;;;;;;;;;;;;;19.13;68.98;98198.94;5011571;28;19922;-88
2022/09/06 07:09:40;;;;;;;;;;;;;;;19.23;69.15;98192.03;5014672;28;19929;-89
2022/09/06 07:12:31;;;;;;;;;;;;;;;19.36;68.83;98199.81;5001664;28;19998;-90
2022/09/06 07:14:59;;;;;;;;;;;;;;;19.49;68.24;98199.66;4997380;28;19926;-88
2022/09/06 07:17:29;;;;;;;;;;;;;;;19.64;67.49;98196.06;5015497;28;20035;-88
2022/09/06 07:19:58;;;;;;;;;;;;;;;19.75;67.59;98202.56;5013811;28;19968;-90
2022/09/06 07:22:42;;;;;;;;;;;;;;;19.91;66.41;98209.97;5013450;28;19933;-87
2022/09/06 07:25:10;;;;;;;;;;;;;;;19.98;66.20;98221.94;5011068;28;19925;-88
2022/09/06 07:27:46;;;;;;;;;;;;;;;20.10;65.82;98219.00;5012382;28;20411;-89
2022/09/06 07:30:15;;;;;;;;;;;;;;;20.08;65.84;98215.00;5002067;28;19929;-87
2022/09/06 07:33:11;;;;;;;;;;;;;;;20.03;66.39;98210.59;5000276;28;19922;-90
2022/09/06 07:35:40;;;;;;;;;;;;;;;20.04;67.00;98211.41;5005628;28;20625;-87
2022/09/06 07:38:27;;;;;;;;;;;;;;;20.12;66.93;98222.16;5004887;28;19928;-88
2022/09/06 07:41:40;;;;;;;;;;;;;;;20.25;66.10;98203.50;5008481;28;19925;-84
2022/09/06 07:44:30;;;;;;;;;;;;;;;20.34;65.74;98206.78;4995362;28;19933;-86
2022/09/06 07:47:18;;;;;;;;;;;;;;;20.35;65.21;98216.69;5000126;28;20532;-86
2022/09/06 07:50:27;;;;;;;;;;;;;;;20.39;65.37;98206.47;5009288;28;19929;-88
2022/09/06 07:53:56;;;;;;;;;;;;;;;20.51;64.70;98207.50;5018134;28;20055;-85
2022/09/06 07:57:10;;;;;;;;;;;;;;;20.49;64.32;98215.34;5002108;28;19925;-87
2022/09/06 08:00:04;;;;;;;;;;;;;;;20.45;65.55;98220.75;5008059;28;19920;-86
2022/09/06 08:02:58;;;;;;;;;;;;;;;20.41;65.88;98211.66;5018488;28;20399;-86
2022/09/06 08:05:48;;;;;;;;;;;;;;;20.42;65.74;98207.72;5003106;28;19929;-86
2022/09/06 08:08:58;;;;;;;;;;;;;;;20.53;65.12;98218.97;5002114;28;20248;-84
2022/09/06 08:11:55;;;;;;;;;;;;;;;20.58;64.52;98218.66;5016536;28;20520;-86
2022/09/06 08:14:44;;;;;;;;;;;;;;;20.62;64.03;98223.06;5010742;28;19922;-87
2022/09/06 08:17:34;;;;;;;;;;;;;;;20.64;64.51;98229.00;4999786;28;20564;-86
2022/09/06 08:20:23;;;;;;;;;;;;;;;20.68;64.08;98223.53;5004460;28;19925;-83
2022/09/06 08:23:12;;;;;;;;;;;;;;;20.74;64.75;98219.31;5010207;28;19957;-87
2022/09/06 08:26:26;;;;;;;;;;;;;;;20.81;64.75;98215.84;5013799;28;20011;-88
2022/09/06 08:29:14;;;;;;;;;;;;;;;20.88;63.65;98202.97;5005032;28;19925;-86
2022/09/06 08:32:03;;;;;;;;;;;;;;;20.93;63.90;98205.41;5007382;28;19921;-83
2022/09/06 08:34:53;;;;;;;;;;;;;;;21.02;63.41;98207.06;5006912;28;19937;-85
2022/09/06 08:44:25;;;;;;;;;;;;;;;21.29;62.55;98211.38;5002667;28;19936;-85
2022/09/06 08:47:34;;;;;;;;;;;;;;;21.45;61.73;98212.03;5002086;28;20567;-87
2022/09/06 08:50:24;;;;;;;;;;;;;;;21.49;61.57;98217.59;5010817;28;19924;-84
2022/09/06 08:53:13;;;;;;;;;;;;;;;21.66;60.90;98210.69;5025142;28;20051;-81
2022/09/06 08:56:30;;;;;;;;;;;;;;;21.82;60.41;98208.50;5013101;28;20147;-81
2022/09/06 08:59:21;;;;;;;;;;;;;;;21.93;61.16;98214.94;5005038;28;19997;-86
2022/09/06 09:02:13;;;;;;;;;;;;;;;21.86;60.99;98214.88;4999254;28;19932;-83
2022/09/06 09:05:04;;;;;;;;;;;;;;;21.74;61.05;98206.06;4993125;28;20412;-88
2022/09/06 09:07:58;;;;;;;;;;;;;;;21.75;61.17;98210.41;5001362;28;20169;-89
2022/09/06 09:10:48;;;;;;;;;;;;;;;21.89;60.24;98211.38;4999774;28;19925;-88
2022/09/06 09:13:45;;;;;;;;;;;;;;;22.06;59.32;98218.25;5001894;28;19925;-87
2022/09/06 09:16:33;;;;;;;;;;;;;;;22.23;59.21;98208.56;4995393;28;20344;-88
2022/09/06 09:19:22;;;;;;;;;;;;;;;22.29;59.24;98209.00;4996271;28;20015;-90
2022/09/06 09:22:10;;;;;;;;;;;;;;;22.28;59.71;98201.88;4998932;28;19940;-84
2022/09/06 09:25:00;;;;;;;;;;;;;;;22.28;58.88;98205.44;5008571;28;19921;-88
2022/09/06 09:27:56;;;;;;;;;;;;;;;22.26;58.22;98207.00;5001087;28;19933;-87
2022/09/06 09:30:46;;;;;;;;;;;;;;;22.18;59.54;98206.94;5007566;28;19952;-85
2022/09/06 09:34:03;;;;;;;;;;;;;;;22.33;59.00;98185.72;5005468;28;20416;-86
2022/09/06 09:37:17;;;;;;;;;;;;;;;22.45;57.69;98184.63;5010446;28;20118;-86
2022/09/06 09:40:33;;;;;;;;;;;;;;;22.52;57.61;98175.56;5011418;28;19928;-90
2022/09/06 09:43:22;;;;;;;;;;;;;;;22.67;57.93;98169.75;5016614;28;19991;-88
2022/09/06 09:46:17;;;;;;;;;;;;;;;22.77;57.30;98168.25;5011176;28;19936;-88
2022/09/06 09:49:06;;;;;;;;;;;;;;;22.80;57.27;98172.22;5009520;28;19941;-83
2022/09/06 09:52:04;;;;;;;;;;;;;;;22.87;57.40;98164.75;5033817;28;19928;-81
2022/09/06 09:54:54;;;;;;;;;;;;;;;22.93;56.57;98157.69;5008719;28;19925;-87
2022/09/06 09:57:46;;;;;;;;;;;;;;;23.00;56.91;98156.94;5009255;28;19925;-84
2022/09/06 10:00:59;;;;;;;;;;;;;;;23.11;55.63;98154.22;5006169;28;19952;-85
2022/09/06 10:04:13;;;;;;;;;;;;;;;23.18;56.04;98154.25;5002867;28;19937;-89
2022/09/06 10:07:22;;;;;;;;;;;;;;;23.24;55.84;98147.94;5006264;28;20376;-86
2022/09/06 10:10:12;;;;;;;;;;;;;;;23.22;55.24;98147.56;4996102;28;19926;-85
2022/09/06 10:13:09;;;;;;;;;;;;;;;23.28;55.05;98150.75;5006862;28;19933;-86
2022/09/06 10:15:58;;;;;;;;;;;;;;;23.32;54.42;98150.75;5002797;28;19925;-84
2022/09/06 10:18:51;;;;;;;;;;;;;;;23.39;54.33;98146.03;5007314;28;19929;-83
2022/09/06 10:21:39;;;;;;;;;;;;;;;23.49;53.69;98144.50;5007436;28;19945;-86
2022/09/06 10:24:30;;;;;;;;;;;;;;;23.59;53.79;98142.91;5001363;28;19932;-84
2022/09/06 10:27:19;;;;;;;;;;;;;;;23.64;53.87;98145.34;5011054;28;19925;-82
2022/09/06 10:30:09;;;;;;;;;;;;;;;23.55;54.06;98137.38;5004080;28;19928;-83
2022/09/06 10:32:59;;;;;;;;;;;;;;;23.49;54.65;98139.72;5009608;28;19969;-85
2022/09/06 10:35:50;;;;;;;;;;;;;;;23.44;54.05;98134.56;5002602;28;20056;-86
2022/09/06 10:41:58;;;;;;;;;;;;;;;23.61;54.15;98135.81;5002430;28;19969;-82
2022/09/06 10:44:51;;;;;;;;;;;;;;;23.79;53.01;98130.31;4998080;28;19933;-83
2022/09/06 10:47:55;;;;;;;;;;;;;;;23.94;53.52;98137.47;5006602;28;19984;-82
2022/09/06 10:50:45;;;;;;;;;;;;;;;24.05;52.52;98129.16;5003242;28;20366;-86
2022/09/06 10:53:36;;;;;;;;;;;;;;;24.07;53.25;98129.53;5012089;28;19921;-80
2022/09/06 10:56:27;;;;;;;;;;;;;;;24.00;52.00;98135.09;4997663;28;20488;-81
2022/09/06 10:59:40;;;;;;;;;;;;;;;23.91;51.94;98121.59;5000112;28;19933;-84
2022/09/06 11:02:56;;;;;;;;;;;;;;;23.92;50.68;98111.31;5009335;28;20312;-86
2022/09/06 11:06:06;;;;;;;;;;;;;;;24.04;51.26;98114.50;5007916;28;19925;-85
2022/09/06 11:08:57;;;;;;;;;;;;;;;24.07;51.62;98120.44;4997355;28;19921;-83
2022/09/06 11:11:52;;;;;;;;;;;;;;;24.12;50.96;98117.25;4991862;28;20004;-84
2022/09/06 11:14:40;;;;;;;;;;;;;;;24.01;50.83;98115.28;5009463;28;19921;-83
2022/09/06 11:17:30;;;;;;;;;;;;;;;23.90;50.25;98108.91;5015200;28;19929;-85
2022/09/06 11:20:24;;;;;;;;;;;;;;;23.89;51.08;98107.34;5007728;28;19925;-85
2022/09/06 11:23:23;;;;;;;;;;;;;;;23.90;51.34;98111.69;5013041;28;19925;-84
2022/09/06 11:26:17;;;;;;;;;;;;;;;23.93;52.16;98105.38;4997278;28;19932;-82
2022/09/06 11:32:28;;;;;;;;;;;;;;;23.97;51.14;98105.34;5002497;28;20032;-83
2022/09/06 11:35:24;;;;;;;;;;;;;;;24.06;51.04;98111.31;5001490;28;20055;-83
2022/09/06 11:38:19;;;;;;;;;;;;;;;24.27;49.45;98099.41;5005325;28;19926;-83
2022/09/06 11:41:15;;;;;;;;;;;;;;;24.38;48.70;98091.91;5008945;28;19921;-87
2022/09/06 11:44:04;;;;;;;;;;;;;;;24.53;48.87;98084.34;5002617;28;19928;-80
2022/09/06 11:47:38;;;;;;;;;;;;;;;24.50;49.22;98091.50;5002171;28;20448;-84
2022/09/06 11:50:48;;;;;;;;;;;;;;;24.48;49.05;98085.53;4998919;28;19925;-83
2022/09/06 11:53:52;;;;;;;;;;;;;;;24.40;47.77;98083.97;5005984;28;19925;-78
2022/09/06 11:59:59;;;;;;;;;;;;;;;24.48;47.50;98088.31;5004296;28;20296;-85
2022/09/06 12:02:51;;;;;;;;;;;;;;;24.54;49.29;98083.13;5003491;28;20300;-85
2022/09/06 12:05:55;;;;;;;;;;;;;;;24.58;47.92;98077.59;4998038;28;20012;-84
2022/09/06 12:08:43;;;;;;;;;;;;;;;24.63;49.33;98077.19;4993653;28;20020;-82
2022/09/06 12:11:36;;;;;;;;;;;;;;;24.64;49.13;98074.00;4993859;28;20018;-81
2022/09/06 12:14:51;;;;;;;;;;;;;;;24.71;47.37;98073.16;5004693;28;19922;-85
2022/09/06 12:17:46;;;;;;;;;;;;;;;24.78;48.20;98067.63;5008466;28;19926;-85
2022/09/06 12:20:54;;;;;;;;;;;;;;;24.70;48.52;98071.59;5003925;28;19965;-89
2022/09/06 12:23:43;;;;;;;;;;;;;;;24.63;48.80;98066.84;4998159;28;19953;-84
2022/09/06 12:26:45;;;;;;;;;;;;;;;24.50;47.08;98071.25;5006028;28;20675;-85
2022/09/06 12:29:38;;;;;;;;;;;;;;;24.43;47.98;98079.59;5007105;28;20560;-88
2022/09/06 12:32:29;;;;;;;;;;;;;;;24.34;48.34;98074.41;5000350;28;19922;-86
2022/09/06 12:35:29;;;;;;;;;;;;;;;24.61;47.83;98062.88;4999576;28;19928;-87
2022/09/06 12:38:38;;;;;;;;;;;;;;;24.85;48.09;98062.03;5001155;28;20038;-86
2022/09/06 12:41:27;;;;;;;;;;;;;;;24.90;48.04;98058.03;4996855;28;20484;-88
2022/09/06 12:44:42;;;;;;;;;;;;;;;24.79;47.72;98052.53;5002065;28;19925;-89
2022/09/06 12:47:33;;;;;;;;;;;;;;;24.86;47.99;98052.50;4997242;28;20063;-84
2022/09/06 12:50:23;;;;;;;;;;;;;;;24.87;47.87;98048.50;4997755;28;19925;-88
2022/09/06 12:53:21;;;;;;;;;;;;;;;24.86;47.10;98046.94;5009893;28;19976;-80
2022/09/06 12:56:12;;;;;;;;;;;;;;;24.91;47.00;98051.28;5019286;28;19928;-84
2022/09/06 12:59:10;;;;;;;;;;;;;;;24.85;46.95;98042.56;4990849;28;19930;-88
2022/09/06 13:02:25;;;;;;;;;;;;;;;24.91;47.50;98037.38;4996697;28;19921;-85
2022/09/06 13:05:15;;;;;;;;;;;;;;;24.85;48.02;98037.00;5006592;28;20477;-88
2022/09/06 13:08:04;;;;;;;;;;;;;;;24.82;48.02;98035.03;5000857;28;19921;-87
2022/09/06 13:10:54;;;;;;;;;;;;;;;24.83;48.23;98037.44;5007925;28;19925;-85
2022/09/06 13:13:45;;;;;;;;;;;;;;;24.81;47.76;98036.22;5003967;28;20311;-85
2022/09/06 13:16:34;;;;;;;;;;;;;;;24.83;47.98;98031.06;5015130;28;19921;-84
2022/09/06 13:19:30;;;;;;;;;;;;;;;24.84;47.70;98021.53;5010520;28;20012;-85
2022/09/06 13:22:39;;;;;;;;;;;;;;;24.87;46.84;98023.50;5004327;28;20471;-85
2022/09/06 13:25:29;;;;;;;;;;;;;;;24.92;46.64;98028.63;5003082;28;19940;-88
2022/09/06 13:28:43;;;;;;;;;;;;;;;25.05;46.77;98015.88;5006943;28;20568;-82
2022/09/06 13:31:31;;;;;;;;;;;;;;;24.98;46.89;98021.50;5001210;28;19921;-84
2022/09/06 13:34:23;;;;;;;;;;;;;;;24.88;47.15;98007.66;5002228;28;20547;-84
2022/09/06 13:37:12;;;;;;;;;;;;;;;24.84;46.88;98010.44;5004940;28;19921;-82
2022/09/06 13:40:38;;;;;;;;;;;;;;;24.88;46.87;98007.66;4998302;28;19922;-87
2022/09/06 13:43:47;;;;;;;;;;;;;;;24.78;47.25;98018.38;5001835;28;19930;-85
2022/09/06 13:47:00;;;;;;;;;;;;;;;24.88;47.22;98005.66;5014513;28;19925;-86
2022/09/06 13:50:14;;;;;;;;;;;;;;;24.96;45.62;98007.19;5003993;28;19921;-85
2022/09/06 13:53:03;;;;;;;;;;;;;;;24.96;47.13;98009.19;4999276;28;19926;-85
2022/09/06 13:55:53;;;;;;;;;;;;;;;24.82;47.38;98010.84;5022711;28;19910;-82
2022/09/06 13:58:42;;;;;;;;;;;;;;;24.79;46.94;98008.06;5000114;28;19960;-84
2022/09/06 14:01:33;;;;;;;;;;;;;;;24.98;46.12;97998.44;5013452;28;19932;-84
2022/09/06 14:04:21;;;;;;;;;;;;;;;25.07;46.31;98007.16;5007993;28;19957;-85
2022/09/06 14:07:10;;;;;;;;;;;;;;;24.94;46.37;98000.47;5020639;28;19921;-85
2022/09/06 14:09:59;;;;;;;;;;;;;;;25.05;46.45;97998.41;4991847;28;19952;-83
2022/09/06 14:12:50;;;;;;;;;;;;;;;25.00;46.27;97991.28;5009175;28;19921;-86
2022/09/06 14:15:39;;;;;;;;;;;;;;;25.05;46.38;97993.66;5011814;28;19944;-84
2022/09/06 14:18:28;;;;;;;;;;;;;;;25.11;46.04;98001.59;4997542;28;19999;-87
2022/09/06 14:21:16;;;;;;;;;;;;;;;25.18;46.22;97993.19;5004515;28;20084;-87
2022/09/06 14:24:05;;;;;;;;;;;;;;;25.22;46.37;97989.22;5009706;28;20552;-84
2022/09/06 14:26:57;;;;;;;;;;;;;;;25.30;45.46;97995.50;5004219;28;19932;-85
2022/09/06 14:32:59;;;;;;;;;;;;;;;25.31;45.02;97983.19;5016463;28;19921;-82
2022/09/06 14:35:48;;;;;;;;;;;;;;;25.41;45.20;97976.78;5028932;28;19928;-83
2022/09/06 14:38:38;;;;;;;;;;;;;;;25.45;44.76;97971.94;5015813;28;20005;-89